createdAt,value
2018-12-17T15:14:35.622Z,1017.33
2018-12-17T15:15:35.426Z,1017.42
2018-12-17T15:16:35.485Z,1017.35
2018-12-17T15:17:35.534Z,1017.40
2018-12-17T15:18:35.590Z,1017.41
2018-12-17T15:19:35.654Z,1017.44
2018-12-17T15:20:35.716Z,1017.44
2018-12-17T15:21:35.759Z,1017.47
2018-12-17T15:22:35.815Z,1017.49
2018-12-17T15:23:35.875Z,1017.57
2018-12-17T15:24:40.351Z,1017.61
2018-12-17T15:25:35.998Z,1017.60
2018-12-17T15:26:36.069Z,1017.67
2018-12-17T15:27:36.110Z,1017.66
2018-12-17T15:28:36.178Z,1017.63
2018-12-17T15:29:36.567Z,1017.72
2018-12-17T15:30:36.307Z,1017.70
2018-12-17T15:31:42.827Z,1017.71
2018-12-17T15:32:36.406Z,1017.73
2018-12-17T15:33:36.467Z,1017.77
2018-12-17T15:34:36.526Z,1017.76
2018-12-17T15:35:36.930Z,1017.77
2018-12-17T15:36:36.648Z,1017.82
2018-12-17T15:37:36.709Z,1017.81
2018-12-17T15:38:36.767Z,1017.80
2018-12-17T15:39:36.831Z,1017.86
2018-12-17T15:40:36.891Z,1017.98
2018-12-17T15:41:37.191Z,1017.93
2018-12-17T15:42:40.810Z,1017.94
2018-12-17T15:43:37.075Z,1017.99
2018-12-17T15:44:37.131Z,1018.01
2018-12-17T15:45:37.196Z,1017.99
2018-12-17T15:46:37.264Z,1018.09
2018-12-17T15:47:37.328Z,1018.14
2018-12-17T15:48:37.375Z,1018.17
2018-12-17T15:49:37.435Z,1018.24
2018-12-17T15:50:37.499Z,1018.24
2018-12-17T15:51:37.571Z,1018.28
2018-12-17T15:52:37.627Z,1018.29
2018-12-17T15:53:37.679Z,1018.29
2018-12-17T15:54:37.743Z,1018.32
2018-12-17T15:55:37.804Z,1018.32
2018-12-17T15:56:37.871Z,1018.37
2018-12-17T15:57:37.932Z,1018.39
2018-12-17T15:58:37.987Z,1018.40
2018-12-17T15:59:39.555Z,1018.44
2018-12-17T16:00:38.112Z,1018.47
2018-12-17T16:01:38.220Z,1018.47
2018-12-17T16:02:38.231Z,1018.46
2018-12-17T16:03:38.292Z,1018.46
2018-12-17T16:04:38.352Z,1018.45
2018-12-17T16:05:38.416Z,1018.48
2018-12-17T16:06:38.484Z,1018.47
2018-12-17T16:07:38.544Z,1018.53
2018-12-17T16:08:38.601Z,1018.58
2018-12-17T16:09:38.660Z,1018.60
2018-12-17T16:10:38.720Z,1018.60
2018-12-17T16:11:38.788Z,1018.66
2018-12-17T16:12:38.893Z,1018.67
2018-12-17T16:13:38.904Z,1018.74
2018-12-17T16:14:38.964Z,1018.77
2018-12-17T16:15:39.028Z,1018.79
2018-12-17T16:16:39.420Z,1018.76
2018-12-17T16:17:39.148Z,1018.80
2018-12-17T16:18:39.208Z,1018.79
2018-12-17T16:19:39.276Z,1018.86
2018-12-17T16:20:39.332Z,1018.88
2018-12-17T16:21:39.392Z,1018.81
2018-12-17T16:22:39.545Z,1018.88
2018-12-17T16:23:39.517Z,1018.83
2018-12-17T16:24:39.576Z,1018.83
2018-12-17T16:25:39.637Z,1018.81
2018-12-17T16:26:39.701Z,1018.79
2018-12-17T16:27:39.769Z,1018.76
2018-12-17T16:28:39.829Z,1018.80
2018-12-17T16:29:39.881Z,1018.86
2018-12-17T16:30:39.945Z,1018.85
2018-12-17T16:31:40.005Z,1018.86
2018-12-17T16:32:40.310Z,1018.89
2018-12-17T16:33:40.129Z,1018.92
2018-12-17T16:34:40.189Z,1018.90
2018-12-17T16:35:40.249Z,1018.91
2018-12-17T16:36:40.313Z,1018.95
2018-12-17T16:37:40.381Z,1018.96
2018-12-17T16:38:40.441Z,1018.94
2018-12-17T16:39:40.493Z,1018.97
2018-12-17T16:40:40.557Z,1019.00
2018-12-17T16:41:40.617Z,1019.00
2018-12-17T16:42:40.685Z,1019.02
2018-12-17T16:43:40.747Z,1019.06
2018-12-17T16:44:40.804Z,1019.09
2018-12-17T16:45:40.862Z,1019.10
2018-12-17T16:46:40.922Z,1019.07
2018-12-17T16:47:40.994Z,1019.07
2018-12-17T16:48:41.054Z,1019.11
2018-12-17T16:49:41.109Z,1019.09
2018-12-17T16:50:41.178Z,1019.03
2018-12-17T16:51:41.231Z,1019.07
2018-12-17T16:52:41.406Z,1019.08
2018-12-17T16:53:41.350Z,1019.05
2018-12-17T16:54:41.439Z,1019.07
2018-12-17T16:55:41.478Z,1019.06
2018-12-17T16:56:41.538Z,1019.08
2018-12-17T16:57:41.602Z,1019.10
2018-12-17T16:58:41.667Z,1019.08
2018-12-17T16:59:41.718Z,1019.12
2018-12-17T17:00:41.782Z,1019.09
2018-12-17T17:01:41.843Z,1019.08
2018-12-17T17:02:41.910Z,1019.11
2018-12-17T17:03:41.975Z,1019.12
2018-12-17T17:04:42.027Z,1019.11
2018-12-17T17:05:42.087Z,1019.12
2018-12-17T17:06:42.147Z,1019.15
2018-12-17T17:07:42.208Z,1019.10
2018-12-17T17:08:42.435Z,1019.13
2018-12-17T17:09:42.331Z,1019.14
2018-12-17T17:10:42.391Z,1019.16
2018-12-17T17:11:42.455Z,1019.19
2018-12-17T17:12:42.515Z,1019.18
2018-12-17T17:13:42.583Z,1019.19
2018-12-17T17:14:42.647Z,1019.21
2018-12-17T17:15:42.711Z,1019.21
2018-12-17T17:16:42.759Z,1019.24
2018-12-17T17:17:42.824Z,1019.22
2018-12-17T17:18:42.891Z,1019.24
2018-12-17T17:19:42.951Z,1019.22
2018-12-17T17:20:43.005Z,1019.21
2018-12-17T17:21:43.064Z,1019.23
2018-12-17T17:22:43.128Z,1019.23
2018-12-17T17:23:43.212Z,1019.24
2018-12-17T17:24:43.247Z,1019.23
2018-12-17T17:25:43.312Z,1019.21
2018-12-17T17:26:43.372Z,1019.20
2018-12-17T17:27:43.501Z,1019.20
2018-12-17T17:28:43.500Z,1019.20
2018-12-17T17:29:43.564Z,1019.24
2018-12-17T17:30:43.632Z,1019.24
2018-12-17T17:31:43.676Z,1019.26
2018-12-17T17:32:43.736Z,1019.26
2018-12-17T17:33:43.804Z,1019.29
2018-12-17T17:34:43.868Z,1019.30
2018-12-17T17:35:43.920Z,1019.31
2018-12-17T17:36:43.988Z,1019.30
2018-12-17T17:37:44.044Z,1019.31
2018-12-17T17:38:44.136Z,1019.35
2018-12-17T17:39:44.164Z,1019.32
2018-12-17T17:40:44.231Z,1019.31
2018-12-17T17:41:44.290Z,1019.34
2018-12-17T17:42:44.348Z,1019.36
2018-12-17T17:43:44.463Z,1019.37
2018-12-17T17:44:44.482Z,1019.34
2018-12-17T17:45:44.534Z,1019.40
2018-12-17T17:46:44.657Z,1019.42
2018-12-17T17:47:44.653Z,1019.43
2018-12-17T17:48:44.725Z,1019.45
2018-12-17T17:49:44.785Z,1019.44
2018-12-17T17:50:44.837Z,1019.47
2018-12-17T17:51:44.901Z,1019.48
2018-12-17T17:52:44.957Z,1019.54
2018-12-17T17:53:45.025Z,1019.51
2018-12-17T17:54:45.089Z,1019.53
2018-12-17T17:55:45.141Z,1019.48
2018-12-17T17:56:45.201Z,1019.56
2018-12-17T17:57:45.261Z,1019.56
2018-12-17T17:58:45.330Z,1019.59
2018-12-17T17:59:45.394Z,1019.57
2018-12-17T18:00:45.445Z,1019.58
2018-12-17T18:01:45.506Z,1019.58
2018-12-17T18:02:45.566Z,1019.61
2018-12-17T18:03:45.638Z,1019.61
2018-12-17T18:04:45.697Z,1019.61
2018-12-17T18:05:45.750Z,1019.66
2018-12-17T18:06:45.810Z,1019.66
2018-12-17T18:07:45.870Z,1019.68
2018-12-17T18:08:45.939Z,1019.70
2018-12-17T18:09:46.010Z,1019.73
2018-12-17T18:10:46.054Z,1019.74
2018-12-17T18:11:46.114Z,1019.76
2018-12-17T18:12:46.178Z,1019.81
2018-12-17T18:13:46.374Z,1019.83
2018-12-17T18:14:46.298Z,1019.86
2018-12-17T18:15:46.359Z,1019.88
2018-12-17T18:16:46.418Z,1019.90
2018-12-17T18:17:46.478Z,1019.92
2018-12-17T18:18:46.574Z,1019.94
2018-12-17T18:19:46.607Z,1019.92
2018-12-17T18:20:46.666Z,1019.92
2018-12-17T18:21:46.722Z,1019.92
2018-12-17T18:22:46.782Z,1019.92
2018-12-17T18:23:46.850Z,1019.87
2018-12-17T18:24:46.910Z,1019.92
2018-12-17T18:25:46.963Z,1019.92
2018-12-17T18:26:47.023Z,1019.94
2018-12-17T18:27:47.086Z,1019.91
2018-12-17T18:28:47.147Z,1019.90
2018-12-17T18:29:47.239Z,1019.98
2018-12-17T18:30:47.266Z,1019.96
2018-12-17T18:31:47.326Z,1019.98
2018-12-17T18:32:47.389Z,1020.00
2018-12-17T18:33:47.451Z,1020.00
2018-12-17T18:34:47.515Z,1020.02
2018-12-17T18:35:47.575Z,1020.06
2018-12-17T18:36:47.631Z,1020.07
2018-12-17T18:37:47.691Z,1020.07
2018-12-17T18:38:47.751Z,1020.03
2018-12-17T18:39:47.819Z,1020.06
2018-12-17T18:40:47.879Z,1020.09
2018-12-17T18:41:47.933Z,1020.09
2018-12-17T18:42:47.999Z,1020.07
2018-12-17T18:43:48.055Z,1020.12
2018-12-17T18:44:48.156Z,1020.08
2018-12-17T18:45:48.176Z,1020.10
2018-12-17T18:46:48.235Z,1020.10
2018-12-17T18:47:48.296Z,1020.12
2018-12-17T18:48:48.356Z,1020.16
2018-12-17T18:49:48.428Z,1020.19
2018-12-17T18:50:48.500Z,1020.16
2018-12-17T18:51:48.542Z,1020.21
2018-12-17T18:52:48.600Z,1020.24
2018-12-17T18:53:48.660Z,1020.21
2018-12-17T18:54:48.728Z,1020.24
2018-12-17T18:55:48.791Z,1020.25
2018-12-17T18:56:48.844Z,1020.26
2018-12-17T18:57:48.904Z,1020.26
2018-12-17T18:58:48.960Z,1020.27
2018-12-17T18:59:49.032Z,1020.27
2018-12-17T19:00:49.092Z,1020.28
2018-12-17T19:01:49.145Z,1020.29
2018-12-17T19:02:49.229Z,1020.32
2018-12-17T19:03:49.264Z,1020.34
2018-12-17T19:04:49.355Z,1020.38
2018-12-17T19:05:49.389Z,1020.36
2018-12-17T19:06:49.450Z,1020.32
2018-12-17T19:07:49.509Z,1020.39
2018-12-17T19:08:49.569Z,1020.37
2018-12-17T19:09:49.637Z,1020.39
2018-12-17T19:10:49.697Z,1020.44
2018-12-17T19:11:49.753Z,1020.44
2018-12-17T19:12:49.813Z,1020.47
2018-12-17T19:13:49.872Z,1020.51
2018-12-17T19:14:49.945Z,1020.50
2018-12-17T19:15:50.005Z,1020.51
2018-12-17T19:16:50.057Z,1020.51
2018-12-17T19:17:50.117Z,1020.52
2018-12-17T19:18:50.177Z,1020.51
2018-12-17T19:19:50.478Z,1020.55
2018-12-17T19:20:50.301Z,1020.55
2018-12-17T19:21:50.357Z,1020.55
2018-12-17T19:22:50.417Z,1020.55
2018-12-17T19:23:50.477Z,1020.55
2018-12-17T19:24:50.547Z,1020.57
2018-12-17T19:25:50.606Z,1020.58
2018-12-17T19:26:50.667Z,1020.60
2018-12-17T19:27:50.722Z,1020.59
2018-12-17T19:28:50.782Z,1020.60
2018-12-17T19:29:50.862Z,1020.62
2018-12-17T19:30:50.910Z,1020.68
2018-12-17T19:31:50.966Z,1020.68
2018-12-17T19:32:51.029Z,1020.69
2018-12-17T19:33:51.086Z,1020.72
2018-12-17T19:34:51.146Z,1020.69
2018-12-17T19:35:51.540Z,1020.73
2018-12-17T19:36:51.270Z,1020.74
2018-12-17T19:37:51.327Z,1020.75
2018-12-17T19:38:51.396Z,1020.74
2018-12-17T19:39:51.467Z,1020.75
2018-12-17T19:40:51.510Z,1020.77
2018-12-17T19:41:51.810Z,1020.77
2018-12-17T19:42:51.630Z,1020.82
2018-12-17T19:43:51.690Z,1020.81
2018-12-17T19:44:51.758Z,1020.86
2018-12-17T19:45:51.814Z,1020.82
2018-12-17T19:46:51.884Z,1020.79
2018-12-17T19:47:51.943Z,1020.81
2018-12-17T19:48:51.995Z,1020.81
2018-12-17T19:49:52.055Z,1020.81
2018-12-17T19:50:52.119Z,1020.85
2018-12-17T19:51:52.423Z,1020.87
2018-12-17T19:52:52.240Z,1020.86
2018-12-17T19:53:52.299Z,1020.87
2018-12-17T19:54:52.359Z,1020.84
2018-12-17T19:55:52.419Z,1020.86
2018-12-17T19:56:52.487Z,1020.88
2018-12-17T19:57:52.548Z,1020.88
2018-12-17T19:58:52.603Z,1020.90
2018-12-17T19:59:52.663Z,1020.88
2018-12-17T20:00:52.728Z,1020.90
2018-12-17T20:01:52.804Z,1020.89
2018-12-17T20:02:52.856Z,1020.86
2018-12-17T20:03:52.908Z,1020.89
2018-12-17T20:04:52.969Z,1020.89
2018-12-17T20:05:53.028Z,1020.89
2018-12-17T20:06:53.180Z,1020.88
2018-12-17T20:07:53.148Z,1020.86
2018-12-17T20:08:53.240Z,1020.91
2018-12-17T20:09:53.268Z,1020.88
2018-12-17T20:10:53.332Z,1020.89
2018-12-17T20:11:53.400Z,1020.87
2018-12-17T20:12:53.460Z,1020.85
2018-12-17T20:13:53.512Z,1020.88
2018-12-17T20:14:53.578Z,1020.85
2018-12-17T20:15:53.636Z,1020.87
2018-12-17T20:16:53.707Z,1020.90
2018-12-17T20:17:53.765Z,1020.90
2018-12-17T20:18:53.817Z,1020.89
2018-12-17T20:19:53.877Z,1020.91
2018-12-17T20:20:53.938Z,1020.92
2018-12-17T20:21:54.006Z,1020.92
2018-12-17T20:22:54.066Z,1020.93
2018-12-17T20:23:54.121Z,1020.93
2018-12-17T20:24:54.181Z,1020.98
2018-12-17T20:25:54.241Z,1021.00
2018-12-17T20:26:54.301Z,1020.97
2018-12-17T20:27:54.413Z,1021.02
2018-12-17T20:28:54.433Z,1021.03
2018-12-17T20:29:54.481Z,1021.04
2018-12-17T20:30:54.545Z,1021.08
2018-12-17T20:31:54.605Z,1021.11
2018-12-17T20:32:54.673Z,1021.14
2018-12-17T20:33:54.733Z,1021.09
2018-12-17T20:34:54.786Z,1021.09
2018-12-17T20:35:54.889Z,1021.09
2018-12-17T20:36:54.933Z,1021.10
2018-12-17T20:37:54.981Z,1021.13
2018-12-17T20:38:55.039Z,1021.12
2018-12-17T20:39:55.090Z,1021.13
2018-12-17T20:40:55.150Z,1021.18
2018-12-17T20:41:55.210Z,1021.20
2018-12-17T20:42:55.279Z,1021.18
2018-12-17T20:43:55.372Z,1021.18
2018-12-17T20:44:55.390Z,1021.23
2018-12-17T20:45:55.450Z,1021.26
2018-12-17T20:46:55.514Z,1021.23
2018-12-17T20:47:55.574Z,1021.24
2018-12-17T20:48:55.644Z,1021.26
2018-12-17T20:49:55.703Z,1021.31
2018-12-17T20:50:55.755Z,1021.29
2018-12-17T20:51:55.814Z,1021.30
2018-12-17T20:52:55.875Z,1021.27
2018-12-17T20:53:55.951Z,1021.30
2018-12-17T20:54:56.007Z,1021.31
2018-12-17T20:55:56.059Z,1021.31
2018-12-17T20:56:56.119Z,1021.32
2018-12-17T20:57:56.179Z,1021.34
2018-12-17T20:58:56.332Z,1021.33
2018-12-17T20:59:56.299Z,1021.36
2018-12-17T21:00:56.359Z,1021.36
2018-12-17T21:01:56.867Z,1021.37
2018-12-17T21:03:00.175Z,1021.41
2018-12-17T21:03:56.547Z,1021.41
2018-12-17T21:04:56.611Z,1021.41
2018-12-17T21:05:56.663Z,1021.39
2018-12-17T21:06:56.725Z,1021.40
2018-12-17T21:07:56.783Z,1021.45
2018-12-17T21:08:56.854Z,1021.43
2018-12-17T21:09:56.912Z,1021.41
2018-12-17T21:10:56.963Z,1021.48
2018-12-17T21:11:57.027Z,1021.42
2018-12-17T21:12:57.087Z,1021.45
2018-12-17T21:13:57.147Z,1021.48
2018-12-17T21:14:57.319Z,1021.43
2018-12-17T21:15:57.267Z,1021.40
2018-12-17T21:16:57.330Z,1021.42
2018-12-17T21:17:57.387Z,1021.45
2018-12-17T21:18:57.447Z,1021.45
2018-12-17T21:19:57.515Z,1021.50
2018-12-17T21:20:57.580Z,1021.45
2018-12-17T21:21:57.627Z,1021.47
2018-12-17T21:22:57.690Z,1021.50
2018-12-17T21:23:57.752Z,1021.47
2018-12-17T21:24:57.820Z,1021.48
2018-12-17T21:25:57.885Z,1021.51
2018-12-17T21:26:57.932Z,1021.52
2018-12-17T21:27:57.992Z,1021.55
2018-12-17T21:28:58.053Z,1021.54
2018-12-17T21:29:58.220Z,1021.52
2018-12-17T21:30:58.172Z,1021.55
2018-12-17T21:31:58.232Z,1021.52
2018-12-17T21:32:58.308Z,1021.49
2018-12-17T21:33:58.352Z,1021.53
2018-12-17T21:34:58.424Z,1021.55
2018-12-17T21:35:58.488Z,1021.52
2018-12-17T21:36:58.542Z,1021.49
2018-12-17T21:37:58.597Z,1021.49
2018-12-17T21:38:58.656Z,1021.52
2018-12-17T21:39:58.725Z,1021.50
2018-12-17T21:40:58.784Z,1021.52
2018-12-17T21:41:58.837Z,1021.52
2018-12-17T21:42:58.897Z,1021.49
2018-12-17T21:43:58.956Z,1021.51
2018-12-17T21:44:59.024Z,1021.52
2018-12-17T21:45:59.085Z,1021.53
2018-12-17T21:46:59.141Z,1021.52
2018-12-17T21:47:59.201Z,1021.55
2018-12-17T21:48:59.261Z,1021.50
2018-12-17T21:49:59.330Z,1021.50
2018-12-17T21:50:59.389Z,1021.47
2018-12-17T21:51:59.441Z,1021.49
2018-12-17T21:52:59.501Z,1021.47
2018-12-17T21:53:59.565Z,1021.51
2018-12-17T21:54:59.629Z,1021.51
2018-12-17T21:55:59.691Z,1021.51
2018-12-17T21:56:59.741Z,1021.49
2018-12-17T21:57:59.801Z,1021.53
2018-12-17T21:58:59.861Z,1021.57
2018-12-17T21:59:59.937Z,1021.57
2018-12-17T22:00:59.993Z,1021.58
2018-12-17T22:02:00.045Z,1021.54
2018-12-17T22:03:00.106Z,1021.56
2018-12-17T22:04:00.165Z,1021.55
2018-12-17T22:05:00.333Z,1021.57
2018-12-17T22:06:00.288Z,1021.62
2018-12-17T22:07:00.345Z,1021.61
2018-12-17T22:08:00.405Z,1021.65
2018-12-17T22:09:00.469Z,1021.67
2018-12-17T22:10:01.126Z,1021.68
2018-12-17T22:11:00.593Z,1021.70
2018-12-17T22:12:00.649Z,1021.73
2018-12-17T22:13:00.705Z,1021.71
2018-12-17T22:14:00.767Z,1021.73
2018-12-17T22:15:00.833Z,1021.73
